sensor_id;sensor_type;location;lat;lon;timestamp;P1;durP1;ratioP1;P2;durP2;ratioP2
64235;SDS011;50564;47.402;9.740;2024-01-06T00:00:57;1.95;;;0.80;;
64235;SDS011;50564;47.402;9.740;2024-01-06T00:05:58;0.95;;;0.55;;
64235;SDS011;50564;47.402;9.740;2024-01-06T00:11:00;1.35;;;0.60;;
64235;SDS011;50564;47.402;9.740;2024-01-06T00:16:03;1.27;;;0.60;;
64235;SDS011;50564;47.402;9.740;2024-01-06T00:21:04;1.13;;;0.90;;
64235;SDS011;50564;47.402;9.740;2024-01-06T00:26:04;0.73;;;0.60;;
64235;SDS011;50564;47.402;9.740;2024-01-06T00:31:06;1.33;;;0.73;;
64235;SDS011;50564;47.402;9.740;2024-01-06T00:36:07;0.85;;;0.60;;
64235;SDS011;50564;47.402;9.740;2024-01-06T00:41:08;1.02;;;0.77;;
64235;SDS011;50564;47.402;9.740;2024-01-06T00:46:08;1.00;;;0.75;;
64235;SDS011;50564;47.402;9.740;2024-01-06T00:51:09;1.83;;;0.90;;
64235;SDS011;50564;47.402;9.740;2024-01-06T00:56:10;1.58;;;0.90;;
64235;SDS011;50564;47.402;9.740;2024-01-06T01:01:11;0.98;;;0.77;;
64235;SDS011;50564;47.402;9.740;2024-01-06T01:06:12;1.23;;;1.05;;
64235;SDS011;50564;47.402;9.740;2024-01-06T01:11:12;1.88;;;1.08;;
64235;SDS011;50564;47.402;9.740;2024-01-06T01:16:13;2.17;;;0.73;;
64235;SDS011;50564;47.402;9.740;2024-01-06T01:21:14;1.13;;;0.70;;
64235;SDS011;50564;47.402;9.740;2024-01-06T01:26:15;1.38;;;0.77;;
64235;SDS011;50564;47.402;9.740;2024-01-06T01:31:16;2.03;;;0.95;;
64235;SDS011;50564;47.402;9.740;2024-01-06T01:36:17;0.70;;;0.43;;
64235;SDS011;50564;47.402;9.740;2024-01-06T01:41:18;0.70;;;0.70;;
64235;SDS011;50564;47.402;9.740;2024-01-06T01:46:19;1.73;;;0.80;;
64235;SDS011;50564;47.402;9.740;2024-01-06T01:51:20;1.65;;;0.90;;
64235;SDS011;50564;47.402;9.740;2024-01-06T01:56:22;0.60;;;0.60;;
64235;SDS011;50564;47.402;9.740;2024-01-06T02:01:22;1.65;;;1.05;;
64235;SDS011;50564;47.402;9.740;2024-01-06T02:06:23;1.27;;;0.50;;
64235;SDS011;50564;47.402;9.740;2024-01-06T02:11:24;1.55;;;0.50;;
64235;SDS011;50564;47.402;9.740;2024-01-06T02:16:25;0.88;;;0.73;;
64235;SDS011;50564;47.402;9.740;2024-01-06T02:21:25;2.15;;;0.70;;
64235;SDS011;50564;47.402;9.740;2024-01-06T02:26:28;1.20;;;0.70;;
64235;SDS011;50564;47.402;9.740;2024-01-06T02:31:28;1.25;;;0.80;;
64235;SDS011;50564;47.402;9.740;2024-01-06T02:36:29;1.15;;;0.65;;
64235;SDS011;50564;47.402;9.740;2024-01-06T02:41:30;1.55;;;0.63;;
64235;SDS011;50564;47.402;9.740;2024-01-06T02:46:31;2.05;;;0.55;;
64235;SDS011;50564;47.402;9.740;2024-01-06T02:51:31;1.35;;;0.63;;
64235;SDS011;50564;47.402;9.740;2024-01-06T02:56:32;0.82;;;0.65;;
64235;SDS011;50564;47.402;9.740;2024-01-06T03:01:33;0.80;;;0.70;;
64235;SDS011;50564;47.402;9.740;2024-01-06T03:06:34;1.63;;;0.75;;
64235;SDS011;50564;47.402;9.740;2024-01-06T03:11:35;2.95;;;0.82;;
64235;SDS011;50564;47.402;9.740;2024-01-06T03:16:36;0.70;;;0.70;;
64235;SDS011;50564;47.402;9.740;2024-01-06T03:21:36;1.08;;;0.47;;
64235;SDS011;50564;47.402;9.740;2024-01-06T03:26:37;2.22;;;0.47;;
64235;SDS011;50564;47.402;9.740;2024-01-06T03:31:38;0.40;;;0.40;;
64235;SDS011;50564;47.402;9.740;2024-01-06T03:36:42;0.80;;;0.50;;
64235;SDS011;50564;47.402;9.740;2024-01-06T03:41:43;0.40;;;0.40;;
64235;SDS011;50564;47.402;9.740;2024-01-06T03:46:44;2.00;;;0.40;;
64235;SDS011;50564;47.402;9.740;2024-01-06T03:51:44;0.35;;;0.32;;
64235;SDS011;50564;47.402;9.740;2024-01-06T03:56:45;0.30;;;0.30;;
64235;SDS011;50564;47.402;9.740;2024-01-06T04:01:46;0.30;;;0.30;;
64235;SDS011;50564;47.402;9.740;2024-01-06T04:06:47;0.20;;;0.20;;
64235;SDS011;50564;47.402;9.740;2024-01-06T04:11:47;0.35;;;0.30;;
64235;SDS011;50564;47.402;9.740;2024-01-06T04:16:48;0.85;;;0.50;;
64235;SDS011;50564;47.402;9.740;2024-01-06T04:21:49;0.38;;;0.20;;
64235;SDS011;50564;47.402;9.740;2024-01-06T04:26:49;0.47;;;0.32;;
64235;SDS011;50564;47.402;9.740;2024-01-06T04:31:50;0.30;;;0.30;;
64235;SDS011;50564;47.402;9.740;2024-01-06T04:36:51;0.60;;;0.32;;
64235;SDS011;50564;47.402;9.740;2024-01-06T04:41:52;0.73;;;0.22;;
64235;SDS011;50564;47.402;9.740;2024-01-06T04:46:53;0.77;;;0.75;;
64235;SDS011;50564;47.402;9.740;2024-01-06T04:51:54;1.67;;;0.22;;
64235;SDS011;50564;47.402;9.740;2024-01-06T04:56:56;0.32;;;0.30;;
64235;SDS011;50564;47.402;9.740;2024-01-06T05:01:58;0.90;;;0.30;;
64235;SDS011;50564;47.402;9.740;2024-01-06T05:06:59;1.00;;;0.52;;
64235;SDS011;50564;47.402;9.740;2024-01-06T05:11:59;0.40;;;0.30;;
64235;SDS011;50564;47.402;9.740;2024-01-06T05:17:00;0.50;;;0.50;;
64235;SDS011;50564;47.402;9.740;2024-01-06T05:22:01;0.32;;;0.32;;
64235;SDS011;50564;47.402;9.740;2024-01-06T05:27:02;0.50;;;0.30;;
64235;SDS011;50564;47.402;9.740;2024-01-06T05:32:03;0.77;;;0.43;;
64235;SDS011;50564;47.402;9.740;2024-01-06T05:37:04;3.13;;;1.77;;
64235;SDS011;50564;47.402;9.740;2024-01-06T05:42:05;6.13;;;2.67;;
64235;SDS011;50564;47.402;9.740;2024-01-06T05:47:06;0.77;;;0.70;;
64235;SDS011;50564;47.402;9.740;2024-01-06T05:52:08;0.47;;;0.43;;
64235;SDS011;50564;47.402;9.740;2024-01-06T05:57:09;0.47;;;0.43;;
64235;SDS011;50564;47.402;9.740;2024-01-06T06:02:09;0.50;;;0.50;;
64235;SDS011;50564;47.402;9.740;2024-01-06T06:07:10;0.20;;;0.20;;
64235;SDS011;50564;47.402;9.740;2024-01-06T06:12:11;0.25;;;0.25;;
64235;SDS011;50564;47.402;9.740;2024-01-06T06:17:12;0.40;;;0.40;;
64235;SDS011;50564;47.402;9.740;2024-01-06T06:22:13;1.05;;;1.00;;
64235;SDS011;50564;47.402;9.740;2024-01-06T06:27:13;1.45;;;1.35;;
64235;SDS011;50564;47.402;9.740;2024-01-06T06:32:14;1.45;;;1.13;;
64235;SDS011;50564;47.402;9.740;2024-01-06T06:37:15;0.93;;;0.90;;
64235;SDS011;50564;47.402;9.740;2024-01-06T06:42:16;1.00;;;0.90;;
64235;SDS011;50564;47.402;9.740;2024-01-06T06:47:17;2.08;;;0.63;;
64235;SDS011;50564;47.402;9.740;2024-01-06T06:52:17;2.00;;;1.30;;
64235;SDS011;50564;47.402;9.740;2024-01-06T06:57:18;2.35;;;1.50;;
64235;SDS011;50564;47.402;9.740;2024-01-06T07:02:20;1.58;;;1.00;;
64235;SDS011;50564;47.402;9.740;2024-01-06T07:07:20;11.63;;;9.38;;
64235;SDS011;50564;47.402;9.740;2024-01-06T07:12:22;9.85;;;7.18;;
64235;SDS011;50564;47.402;9.740;2024-01-06T07:17:23;3.78;;;2.38;;
64235;SDS011;50564;47.402;9.740;2024-01-06T07:22:24;1.60;;;1.45;;
64235;SDS011;50564;47.402;9.740;2024-01-06T07:27:25;1.70;;;1.30;;
64235;SDS011;50564;47.402;9.740;2024-01-06T07:32:26;0.90;;;0.90;;
64235;SDS011;50564;47.402;9.740;2024-01-06T07:37:27;2.78;;;1.67;;
64235;SDS011;50564;47.402;9.740;2024-01-06T07:42:28;3.80;;;2.35;;
64235;SDS011;50564;47.402;9.740;2024-01-06T07:47:29;3.47;;;2.22;;
64235;SDS011;50564;47.402;9.740;2024-01-06T07:52:29;7.85;;;4.68;;
64235;SDS011;50564;47.402;9.740;2024-01-06T07:57:30;13.68;;;12.48;;
64235;SDS011;50564;47.402;9.740;2024-01-06T08:02:31;5.65;;;4.88;;
64235;SDS011;50564;47.402;9.740;2024-01-06T08:07:31;10.05;;;4.45;;
64235;SDS011;50564;47.402;9.740;2024-01-06T08:12:32;4.05;;;2.83;;
64235;SDS011;50564;47.402;9.740;2024-01-06T08:17:33;4.00;;;2.60;;
64235;SDS011;50564;47.402;9.740;2024-01-06T08:22:34;3.40;;;2.45;;
64235;SDS011;50564;47.402;9.740;2024-01-06T08:27:34;51.28;;;32.63;;
64235;SDS011;50564;47.402;9.740;2024-01-06T08:32:35;8.75;;;5.97;;
64235;SDS011;50564;47.402;9.740;2024-01-06T08:37:36;7.38;;;5.53;;
64235;SDS011;50564;47.402;9.740;2024-01-06T08:42:37;2.85;;;2.28;;
64235;SDS011;50564;47.402;9.740;2024-01-06T08:47:38;5.15;;;3.00;;
64235;SDS011;50564;47.402;9.740;2024-01-06T08:52:38;4.03;;;2.47;;
64235;SDS011;50564;47.402;9.740;2024-01-06T08:57:39;4.57;;;2.85;;
64235;SDS011;50564;47.402;9.740;2024-01-06T09:02:40;4.55;;;2.88;;
64235;SDS011;50564;47.402;9.740;2024-01-06T09:07:41;7.55;;;5.43;;
64235;SDS011;50564;47.402;9.740;2024-01-06T09:12:41;13.05;;;8.88;;
64235;SDS011;50564;47.402;9.740;2024-01-06T09:17:42;5.90;;;3.80;;
64235;SDS011;50564;47.402;9.740;2024-01-06T09:22:43;8.73;;;4.43;;
64235;SDS011;50564;47.402;9.740;2024-01-06T09:27:44;11.57;;;6.10;;
64235;SDS011;50564;47.402;9.740;2024-01-06T09:32:44;4.70;;;2.63;;
64235;SDS011;50564;47.402;9.740;2024-01-06T09:37:45;4.88;;;2.83;;
64235;SDS011;50564;47.402;9.740;2024-01-06T09:42:46;4.78;;;2.75;;
64235;SDS011;50564;47.402;9.740;2024-01-06T09:47:50;3.53;;;2.40;;
64235;SDS011;50564;47.402;9.740;2024-01-06T09:52:51;4.90;;;2.65;;
64235;SDS011;50564;47.402;9.740;2024-01-06T09:57:54;3.17;;;2.13;;
64235;SDS011;50564;47.402;9.740;2024-01-06T10:02:54;3.65;;;2.05;;
64235;SDS011;50564;47.402;9.740;2024-01-06T10:07:55;3.60;;;2.75;;
64235;SDS011;50564;47.402;9.740;2024-01-06T10:12:56;3.95;;;2.67;;
64235;SDS011;50564;47.402;9.740;2024-01-06T10:17:57;1.77;;;1.58;;
64235;SDS011;50564;47.402;9.740;2024-01-06T10:23:03;2.38;;;1.77;;
64235;SDS011;50564;47.402;9.740;2024-01-06T10:28:05;3.95;;;2.47;;
64235;SDS011;50564;47.402;9.740;2024-01-06T10:33:09;2.78;;;2.13;;
64235;SDS011;50564;47.402;9.740;2024-01-06T10:38:11;5.28;;;3.33;;
64235;SDS011;50564;47.402;9.740;2024-01-06T10:43:12;5.53;;;3.60;;
64235;SDS011;50564;47.402;9.740;2024-01-06T10:48:13;5.68;;;3.33;;
64235;SDS011;50564;47.402;9.740;2024-01-06T10:53:14;5.60;;;3.97;;
64235;SDS011;50564;47.402;9.740;2024-01-06T10:58:16;4.75;;;3.45;;
64235;SDS011;50564;47.402;9.740;2024-01-06T11:03:17;5.45;;;3.42;;
64235;SDS011;50564;47.402;9.740;2024-01-06T11:08:18;9.25;;;6.97;;
64235;SDS011;50564;47.402;9.740;2024-01-06T11:13:23;10.55;;;8.90;;
64235;SDS011;50564;47.402;9.740;2024-01-06T11:18:34;13.07;;;9.75;;
64235;SDS011;50564;47.402;9.740;2024-01-06T11:23:38;16.52;;;13.70;;
64235;SDS011;50564;47.402;9.740;2024-01-06T11:28:45;15.23;;;12.32;;
64235;SDS011;50564;47.402;9.740;2024-01-06T11:33:49;14.27;;;10.45;;
64235;SDS011;50564;47.402;9.740;2024-01-06T11:38:51;12.88;;;9.30;;
64235;SDS011;50564;47.402;9.740;2024-01-06T11:43:52;12.23;;;9.25;;
64235;SDS011;50564;47.402;9.740;2024-01-06T11:48:53;15.38;;;10.88;;
64235;SDS011;50564;47.402;9.740;2024-01-06T11:59:41;11.07;;;8.10;;
64235;SDS011;50564;47.402;9.740;2024-01-06T12:04:41;9.40;;;6.22;;
64235;SDS011;50564;47.402;9.740;2024-01-06T12:09:43;6.68;;;4.53;;
64235;SDS011;50564;47.402;9.740;2024-01-06T12:14:43;6.25;;;4.25;;
64235;SDS011;50564;47.402;9.740;2024-01-06T12:19:45;6.07;;;3.72;;
64235;SDS011;50564;47.402;9.740;2024-01-06T12:24:49;6.75;;;4.43;;
64235;SDS011;50564;47.402;9.740;2024-01-06T12:29:50;7.40;;;5.10;;
64235;SDS011;50564;47.402;9.740;2024-01-06T12:34:53;5.45;;;3.97;;
64235;SDS011;50564;47.402;9.740;2024-01-06T12:39:53;5.35;;;3.60;;
64235;SDS011;50564;47.402;9.740;2024-01-06T12:44:54;5.82;;;3.58;;
64235;SDS011;50564;47.402;9.740;2024-01-06T12:49:55;4.70;;;3.10;;
64235;SDS011;50564;47.402;9.740;2024-01-06T12:54:56;4.03;;;2.72;;
64235;SDS011;50564;47.402;9.740;2024-01-06T12:59:56;2.70;;;2.00;;
64235;SDS011;50564;47.402;9.740;2024-01-06T13:04:57;3.30;;;2.28;;
64235;SDS011;50564;47.402;9.740;2024-01-06T13:09:58;5.38;;;3.40;;
64235;SDS011;50564;47.402;9.740;2024-01-06T13:15:00;4.80;;;3.25;;
64235;SDS011;50564;47.402;9.740;2024-01-06T13:20:01;4.82;;;3.22;;
64235;SDS011;50564;47.402;9.740;2024-01-06T13:25:01;5.75;;;3.78;;
64235;SDS011;50564;47.402;9.740;2024-01-06T13:30:03;6.20;;;4.00;;
64235;SDS011;50564;47.402;9.740;2024-01-06T13:35:05;6.85;;;4.07;;
64235;SDS011;50564;47.402;9.740;2024-01-06T13:40:07;6.50;;;4.63;;
64235;SDS011;50564;47.402;9.740;2024-01-06T13:45:08;8.40;;;4.90;;
64235;SDS011;50564;47.402;9.740;2024-01-06T13:50:13;6.30;;;4.18;;
64235;SDS011;50564;47.402;9.740;2024-01-06T13:55:16;6.22;;;4.20;;
64235;SDS011;50564;47.402;9.740;2024-01-06T14:00:17;6.43;;;4.63;;
64235;SDS011;50564;47.402;9.740;2024-01-06T14:05:20;7.97;;;5.07;;
64235;SDS011;50564;47.402;9.740;2024-01-06T14:10:21;10.23;;;6.88;;
64235;SDS011;50564;47.402;9.740;2024-01-06T14:15:22;10.88;;;7.53;;
64235;SDS011;50564;47.402;9.740;2024-01-06T14:20:26;12.90;;;8.90;;
64235;SDS011;50564;47.402;9.740;2024-01-06T14:25:28;12.32;;;8.73;;
64235;SDS011;50564;47.402;9.740;2024-01-06T14:30:28;19.90;;;12.32;;
64235;SDS011;50564;47.402;9.740;2024-01-06T14:35:29;7.28;;;4.50;;
64235;SDS011;50564;47.402;9.740;2024-01-06T14:40:30;10.55;;;6.47;;
64235;SDS011;50564;47.402;9.740;2024-01-06T14:45:31;7.18;;;5.03;;
64235;SDS011;50564;47.402;9.740;2024-01-06T14:50:32;4.78;;;3.83;;
64235;SDS011;50564;47.402;9.740;2024-01-06T14:55:33;5.45;;;3.88;;
64235;SDS011;50564;47.402;9.740;2024-01-06T15:00:34;4.93;;;3.78;;
64235;SDS011;50564;47.402;9.740;2024-01-06T15:05:36;4.60;;;3.05;;
64235;SDS011;50564;47.402;9.740;2024-01-06T15:10:36;4.75;;;3.17;;
64235;SDS011;50564;47.402;9.740;2024-01-06T15:15:37;6.93;;;4.78;;
64235;SDS011;50564;47.402;9.740;2024-01-06T15:20:38;11.27;;;6.15;;
64235;SDS011;50564;47.402;9.740;2024-01-06T15:25:40;8.82;;;6.13;;
64235;SDS011;50564;47.402;9.740;2024-01-06T15:30:44;8.63;;;5.60;;
64235;SDS011;50564;47.402;9.740;2024-01-06T15:35:45;11.15;;;6.43;;
64235;SDS011;50564;47.402;9.740;2024-01-06T15:40:46;10.50;;;6.03;;
64235;SDS011;50564;47.402;9.740;2024-01-06T15:45:46;11.23;;;6.15;;
64235;SDS011;50564;47.402;9.740;2024-01-06T15:50:47;9.77;;;6.10;;
64235;SDS011;50564;47.402;9.740;2024-01-06T15:55:48;14.77;;;10.13;;
64235;SDS011;50564;47.402;9.740;2024-01-06T16:00:49;12.82;;;10.18;;
64235;SDS011;50564;47.402;9.740;2024-01-06T16:05:49;10.38;;;7.43;;
64235;SDS011;50564;47.402;9.740;2024-01-06T16:10:50;9.52;;;6.47;;
64235;SDS011;50564;47.402;9.740;2024-01-06T16:15:51;10.02;;;6.20;;
64235;SDS011;50564;47.402;9.740;2024-01-06T16:20:55;8.52;;;5.97;;
64235;SDS011;50564;47.402;9.740;2024-01-06T16:25:57;9.18;;;5.68;;
64235;SDS011;50564;47.402;9.740;2024-01-06T16:30:58;8.73;;;6.15;;
64235;SDS011;50564;47.402;9.740;2024-01-06T16:35:59;8.57;;;5.05;;
64235;SDS011;50564;47.402;9.740;2024-01-06T16:41:02;7.43;;;5.22;;
64235;SDS011;50564;47.402;9.740;2024-01-06T16:46:03;9.57;;;4.97;;
64235;SDS011;50564;47.402;9.740;2024-01-06T16:51:05;8.43;;;5.05;;
64235;SDS011;50564;47.402;9.740;2024-01-06T16:56:06;7.20;;;3.95;;
64235;SDS011;50564;47.402;9.740;2024-01-06T17:01:07;15.85;;;8.90;;
64235;SDS011;50564;47.402;9.740;2024-01-06T17:06:07;18.55;;;9.95;;
64235;SDS011;50564;47.402;9.740;2024-01-06T17:11:10;9.00;;;5.38;;
64235;SDS011;50564;47.402;9.740;2024-01-06T17:16:10;10.73;;;6.63;;
64235;SDS011;50564;47.402;9.740;2024-01-06T17:21:11;12.18;;;6.35;;
64235;SDS011;50564;47.402;9.740;2024-01-06T17:26:14;13.48;;;8.45;;
64235;SDS011;50564;47.402;9.740;2024-01-06T17:31:15;9.88;;;6.18;;
64235;SDS011;50564;47.402;9.740;2024-01-06T17:36:16;9.18;;;6.18;;
64235;SDS011;50564;47.402;9.740;2024-01-06T17:41:17;11.50;;;7.30;;
64235;SDS011;50564;47.402;9.740;2024-01-06T17:46:18;19.20;;;12.07;;
64235;SDS011;50564;47.402;9.740;2024-01-06T17:51:21;12.40;;;8.00;;
64235;SDS011;50564;47.402;9.740;2024-01-06T17:56:25;7.50;;;5.32;;
64235;SDS011;50564;47.402;9.740;2024-01-06T18:01:26;8.85;;;5.18;;
64235;SDS011;50564;47.402;9.740;2024-01-06T18:06:26;8.65;;;6.30;;
64235;SDS011;50564;47.402;9.740;2024-01-06T18:11:28;8.30;;;5.35;;
64235;SDS011;50564;47.402;9.740;2024-01-06T18:16:29;29.40;;;13.88;;
64235;SDS011;50564;47.402;9.740;2024-01-06T18:21:29;32.78;;;17.70;;
64235;SDS011;50564;47.402;9.740;2024-01-06T18:26:30;28.88;;;18.20;;
64235;SDS011;50564;47.402;9.740;2024-01-06T18:31:31;8.00;;;6.07;;
64235;SDS011;50564;47.402;9.740;2024-01-06T18:36:32;5.93;;;4.50;;
64235;SDS011;50564;47.402;9.740;2024-01-06T18:41:33;6.95;;;4.53;;
64235;SDS011;50564;47.402;9.740;2024-01-06T18:46:33;8.23;;;6.57;;
64235;SDS011;50564;47.402;9.740;2024-01-06T18:51:34;7.75;;;5.35;;
64235;SDS011;50564;47.402;9.740;2024-01-06T18:56:38;8.57;;;6.45;;
64235;SDS011;50564;47.402;9.740;2024-01-06T19:01:39;7.53;;;5.28;;
64235;SDS011;50564;47.402;9.740;2024-01-06T19:06:49;8.77;;;5.78;;
64235;SDS011;50564;47.402;9.740;2024-01-06T19:11:49;8.98;;;6.43;;
64235;SDS011;50564;47.402;9.740;2024-01-06T19:16:50;11.70;;;6.80;;
64235;SDS011;50564;47.402;9.740;2024-01-06T19:21:51;12.07;;;6.82;;
64235;SDS011;50564;47.402;9.740;2024-01-06T19:26:52;9.75;;;6.90;;
64235;SDS011;50564;47.402;9.740;2024-01-06T19:31:53;11.50;;;6.68;;
64235;SDS011;50564;47.402;9.740;2024-01-06T19:36:53;7.20;;;5.43;;
64235;SDS011;50564;47.402;9.740;2024-01-06T19:41:54;8.18;;;6.03;;
64235;SDS011;50564;47.402;9.740;2024-01-06T19:46:55;9.15;;;5.55;;
64235;SDS011;50564;47.402;9.740;2024-01-06T19:52:00;8.18;;;5.90;;
64235;SDS011;50564;47.402;9.740;2024-01-06T19:57:02;8.20;;;5.68;;
64235;SDS011;50564;47.402;9.740;2024-01-06T20:02:03;9.20;;;5.60;;
64235;SDS011;50564;47.402;9.740;2024-01-06T20:07:04;10.80;;;7.35;;
64235;SDS011;50564;47.402;9.740;2024-01-06T20:12:05;10.25;;;6.28;;
64235;SDS011;50564;47.402;9.740;2024-01-06T20:17:06;9.57;;;6.85;;
64235;SDS011;50564;47.402;9.740;2024-01-06T20:22:10;11.13;;;7.03;;
64235;SDS011;50564;47.402;9.740;2024-01-06T20:41:43;7.88;;;5.05;;
64235;SDS011;50564;47.402;9.740;2024-01-06T20:46:44;9.75;;;7.82;;
64235;SDS011;50564;47.402;9.740;2024-01-06T20:51:44;9.40;;;6.47;;
64235;SDS011;50564;47.402;9.740;2024-01-06T20:56:46;11.82;;;7.78;;
64235;SDS011;50564;47.402;9.740;2024-01-06T21:01:46;11.18;;;7.43;;
64235;SDS011;50564;47.402;9.740;2024-01-06T21:06:47;8.63;;;4.88;;
64235;SDS011;50564;47.402;9.740;2024-01-06T21:11:47;7.13;;;5.18;;
64235;SDS011;50564;47.402;9.740;2024-01-06T21:16:48;7.18;;;4.85;;
64235;SDS011;50564;47.402;9.740;2024-01-06T21:21:52;8.98;;;6.30;;
64235;SDS011;50564;47.402;9.740;2024-01-06T21:26:52;10.32;;;6.78;;
64235;SDS011;50564;47.402;9.740;2024-01-06T21:31:53;9.73;;;6.28;;
64235;SDS011;50564;47.402;9.740;2024-01-06T21:36:54;10.13;;;6.80;;
64235;SDS011;50564;47.402;9.740;2024-01-06T21:41:55;8.38;;;5.30;;
64235;SDS011;50564;47.402;9.740;2024-01-06T21:46:55;8.07;;;4.88;;
64235;SDS011;50564;47.402;9.740;2024-01-06T21:51:56;8.88;;;4.93;;
64235;SDS011;50564;47.402;9.740;2024-01-06T21:56:57;7.78;;;4.72;;
64235;SDS011;50564;47.402;9.740;2024-01-06T22:01:57;6.35;;;3.80;;
64235;SDS011;50564;47.402;9.740;2024-01-06T22:06:58;5.35;;;3.33;;
64235;SDS011;50564;47.402;9.740;2024-01-06T22:11:59;4.88;;;3.42;;
64235;SDS011;50564;47.402;9.740;2024-01-06T22:16:59;4.55;;;3.20;;
64235;SDS011;50564;47.402;9.740;2024-01-06T22:22:00;5.07;;;3.35;;
64235;SDS011;50564;47.402;9.740;2024-01-06T22:32:18;6.88;;;4.28;;
64235;SDS011;50564;47.402;9.740;2024-01-06T22:37:18;5.07;;;3.58;;
64235;SDS011;50564;47.402;9.740;2024-01-06T22:42:20;7.45;;;4.20;;
64235;SDS011;50564;47.402;9.740;2024-01-06T22:47:21;6.05;;;3.80;;
64235;SDS011;50564;47.402;9.740;2024-01-06T22:52:22;5.20;;;3.30;;
64235;SDS011;50564;47.402;9.740;2024-01-06T22:57:22;5.30;;;3.17;;
64235;SDS011;50564;47.402;9.740;2024-01-06T23:02:23;3.20;;;2.50;;
64235;SDS011;50564;47.402;9.740;2024-01-06T23:07:24;4.10;;;2.58;;
64235;SDS011;50564;47.402;9.740;2024-01-06T23:12:24;3.80;;;2.55;;
64235;SDS011;50564;47.402;9.740;2024-01-06T23:17:25;2.78;;;2.05;;
64235;SDS011;50564;47.402;9.740;2024-01-06T23:22:26;3.25;;;2.03;;
64235;SDS011;50564;47.402;9.740;2024-01-06T23:27:27;5.28;;;2.75;;
64235;SDS011;50564;47.402;9.740;2024-01-06T23:32:28;4.25;;;2.72;;
64235;SDS011;50564;47.402;9.740;2024-01-06T23:37:28;4.50;;;2.80;;
64235;SDS011;50564;47.402;9.740;2024-01-06T23:42:29;4.20;;;3.08;;
64235;SDS011;50564;47.402;9.740;2024-01-06T23:47:30;4.35;;;2.85;;
64235;SDS011;50564;47.402;9.740;2024-01-06T23:52:31;5.10;;;3.13;;
64235;SDS011;50564;47.402;9.740;2024-01-06T23:57:32;6.15;;;3.45;;
